AirNav   Bose Proflight Series 2 Wireless Aviation Headset
 
 968 users online  

69FA LZ Shadow Heliport
Brooksville, Florida, USA

GOING TO BROOKSVILLE?


FAA INFORMATION EFFECTIVE 07 NOVEMBER 2019

Location

FAA Identifier: 69FA
Lat/Long: 28-33-18.9400N 082-20-04.7400W
28-33.315667N 082-20.079000W
28.5552611,-82.3346500
(estimated)
Elevation: 90 ft. / 27 m (estimated)
From city: 3 miles E of BROOKSVILLE, FL
Time zone: UTC -5 (UTC -4 during Daylight Saving Time)
Zip code: 34601

Heliport Operations

Heliport use: Private use. Permission required prior to landing
Activation date: 10/2017
Control tower: no
ARTCC: JACKSONVILLE CENTER
FSS: SAINT PETERSBURG FLIGHT SERVICE STATION
Attendance: 
Wind indicator: yes
Segmented circle: no

Heliport Communications

WX ASOS at BKV (8 nm SW): 134.725 (352-799-5881)
WX AWOS-3 at INF (15 nm N): 119.975 (352-341-0264)

Nearby radio navigation aids

VOR radial/distance  VOR name  Freq  Var
OCFr189/37.8OCALA VORTAC113.7000E
LALr333/38.1LAKELAND VORTAC116.0001E

Heliport Services

Runway Information

Helipad H1

Dimensions: 100 x 100 ft. / 30 x 30 m
Surface: turf, in good condition
Latitude: 28-33.315667N
Longitude: 082-20.079000W
Elevation: 90.0 ft.
Traffic pattern: leftleft

Heliport Ownership and Management from official FAA records

Ownership: Privately-owned
Owner: JOHN P SILBERMAN
24269 MONDON HILL RD
BROOKSVILLE, FL 34601
Phone 352-316-6463
Manager: STACY K GANDY
24265 MONDON HILL RD
BROOKSVILLE, FL 34601
Phone 352-584-6822

Additional Remarks

FOR CD CTC TAMPA APCH AT 813-878-2528.

Instrument Procedures

There are no published instrument procedures at 69FA.

Some nearby airports with instrument procedures:

KBKV - Brooksville-Tampa Bay Regional Airport (8 nm SW)
KINF - Inverness Airport (15 nm N)
KZPH - Zephyrhills Municipal Airport (22 nm SE)
KCGC - Crystal River Airport-Captain Tom Davis Field (23 nm NW)
X35 - Marion County Airport (30 nm N)
 
Loc | Ops | Rwys | IFR | FBO | Links
Com | Nav | Svcs | Stats | Notes
Aerial photo
No photo
 
Airport distance calculator
Flying to LZ Shadow Heliport? Find the distance to fly.

From to 69FA

Sunrise and sunset
Times for 21-Nov-2019
 Local
(UTC-5)
 Zulu
(UTC)
Morning civil twilight06:3311:33
Sunrise06:5811:58
Sunset17:3322:33
Evening civil twilight17:5822:58

Current date and time
Zulu (UTC)  22-Nov-2019 01:12:02
Local (UTC-5)  21-Nov-2019 20:12:02
 
METAR
KBKV 
8nm SW 
220053Z 00000KT 10SM BKN050 15/13 A3019 RMK AO2 SLP221 T01500128
KINF 
15nm N 
220055Z AUTO 04004KT 7SM CLR 17/16 A3020 RMK AO2
TAF
KLEE 
31nm NE 
211732Z 2118/2218 06007KT P6SM FEW050 FM220000 VRB03KT P6SM FEW250 FM221500 15004KT P6SM FEW040 SCT250
KTPA 
37nm S 
212111Z 2121/2224 VRB05KT P6SM SKC FM221900 23005KT P6SM FEW250
KLAL 
39nm SE 
211720Z 2118/2218 VRB05KT P6SM SKC
NOTAMs
Click for the latest NOTAMs
NOTAMs are issued by the DoD/FAA and will open in a separate window not controlled by AirNav.

 

 
 

Would you like to see your business listed on this page?

 If your business provides an interesting product or service to pilots, flight crews, aircraft, or users of the LZ Shadow Heliport, you should consider listing it here.  To start the listing process, click on the button below
 
Add a business
 

Other Pages about LZ Shadow Heliport

Update a link
 
Copyright © AirNav, LLC. All rights reserved. Privacy Policy  Contact